National City, CA (91950)

4:29 PM PST on December 24, 2014 (GMT -0800)
Chula Vista | Change Station
CLOSE
Current Station
Personal Weather Station
Location: Chula Vista, CA
Elevation: 50 ft
Nearby Weather Stations

Elev 50 ft 32.65 °N, 117.07 °W | Updated 4 minutes ago

Mostly Cloudy
Mostly Cloudy
66.2 °F
Feels Like 66.2 °F
N
0.0
Wind Variable Wind from SW
Gusts 0.0 mph

Today
High -- | Low -- °F
--% Chance of Precip.
Yesterday
High -- | Low -- °F
Precip. -- in
6:47 AM 4:48 PM
Waxing Crescent, 12% visible
Pressure 29.96 in
Visibility 10.0 miles
Clouds Mostly Cloudy 25000 ft
Dew Point 53 °F
Humidity 62%
Rainfall 0.00 in
Snow Depth Not available.
UV 0 out of 12
Pollen 6.00 out of 12
Air Quality Not available.
Flu Activity Not available.
METAR KNRS 242356Z 21007KT 10SM BKN250 19/10 A2995 RMK AO2 SLP143 T01940100 10244 20189 58011 $

More Conditions Fewer Conditions

Pressure 29.96 in
Visibility 10.0 miles
Clouds Mostly Cloudy 25000 ft
Dew Point 53 °F
Humidity 62%
Rainfall 0.00 in
Snow Depth Not available.
UV 0 out of 12
Pollen 6.00 out of 12
Air Quality Not available.
Flu Activity Not available.
METAR KNRS 242356Z 21007KT 10SM BKN250 19/10 A2995 RMK AO2 SLP143 T01940100 10244 20189 58011 $

More Conditions Fewer Conditions

10-Day Weather Forecast

Almanac

Astronomy

Dec. 24, 2014 Rise Set
Actual Time
Civil Twilight
Nautical Twilight
Astronomical Twilight
Moon
Length of Visible Light
Length of Day
Tomorrow will be .
, % of the Moon is Illuminated

Today's Extremes

State Highs State Lows

Community

WunderPhotos

Upload Photos

1,780,192 photos uploaded!

WunderBlogs® & News

Nearby

Air Quality

  Air Quality AQ Index Pollutant
Not available.

Snow Depth

Station Depth Elevation

Earthquake Activity

City Distance Mag. Time & Date
Minimum magnitude displayed is 2.5.

Coastal Water Temperatures

Place Temperature

Nearby Weather Stations